Terminal Aerodrome Forecast
Issued by NWS Mobile, AL

Home | Current Version | Previous Version | Text Only | Print | Product List | Glossary On
Versions: 1 2 3 4 5 6 7 8 9 10 11 12 13 14 15 16 17 18 19 20 21 22 23 24 25 26 27 28 29 30
000
FTUS44 KMOB 310520
TAFMOB
TAF
KMOB 310520Z 3106/0106 33003KT P6SM FEW030 OVC250
     FM311300 02007KT P6SM SCT030 BKN250
     FM311700 04007KT P6SM VCTS SCT040CB SCT250
      TEMPO 3117/3121 3SM TSRA BKN040CB
     FM312100 04005KT P6SM VCTS SCT040CB SCT250 PROB30 3121/0103
      VRB20G25KT 3SM TSRA BKN040CB BKN100 OVC250=

USA.gov is the U.S. government's official web portal to all federal, state and local government web resources and services.